sensor_id;sensor_type;location;lat;lon;timestamp;pressure;altitude;pressure_sealevel;temperature;humidity
56334;BME280;42240;53.626;55.886;2023-04-27T00:01:19;75516.84;;;-145.10;100.00
56334;BME280;42240;53.626;55.886;2023-04-27T00:02:52;75508.94;;;-145.10;100.00
56334;BME280;42240;53.626;55.886;2023-04-27T00:04:25;75501.03;;;-145.10;100.00
56334;BME280;42240;53.626;55.886;2023-04-27T00:05:59;75506.94;;;-145.10;100.00
56334;BME280;42240;53.626;55.886;2023-04-27T00:07:32;75508.94;;;-145.10;100.00
56334;BME280;42240;53.626;55.886;2023-04-27T00:09:05;75504.97;;;-145.10;100.00
56334;BME280;42240;53.626;55.886;2023-04-27T00:10:38;75504.97;;;-145.10;100.00
56334;BME280;42240;53.626;55.886;2023-04-27T00:12:11;75516.84;;;-145.10;100.00
56334;BME280;42240;53.626;55.886;2023-04-27T00:13:44;75506.94;;;-145.10;100.00
56334;BME280;42240;53.626;55.886;2023-04-27T00:15:17;75503.00;;;-145.10;100.00
56334;BME280;42240;53.626;55.886;2023-04-27T00:16:50;75504.97;;;-145.10;100.00
56334;BME280;42240;53.626;55.886;2023-04-27T00:18:23;75514.84;;;-145.10;100.00
56334;BME280;42240;53.626;55.886;2023-04-27T00:19:56;75497.06;;;-145.10;100.00
56334;BME280;42240;53.626;55.886;2023-04-27T00:21:30;75501.03;;;-145.10;100.00
56334;BME280;42240;53.626;55.886;2023-04-27T00:23:03;75501.03;;;-145.10;100.00
56334;BME280;42240;53.626;55.886;2023-04-27T00:24:36;75499.03;;;-145.10;100.00
56334;BME280;42240;53.626;55.886;2023-04-27T00:26:09;75501.03;;;-145.10;100.00
56334;BME280;42240;53.626;55.886;2023-04-27T00:27:44;75516.84;;;-145.10;100.00
56334;BME280;42240;53.626;55.886;2023-04-27T00:29:17;75524.75;;;-145.10;100.00
56334;BME280;42240;53.626;55.886;2023-04-27T00:30:50;75520.78;;;-145.10;100.00
56334;BME280;42240;53.626;55.886;2023-04-27T00:32:25;75528.69;;;-145.10;100.00
56334;BME280;42240;53.626;55.886;2023-04-27T00:33:59;75530.66;;;-145.10;100.00
56334;BME280;42240;53.626;55.886;2023-04-27T00:35:32;75528.69;;;-145.10;100.00
56334;BME280;42240;53.626;55.886;2023-04-27T00:37:05;75530.66;;;-145.10;100.00
56334;BME280;42240;53.626;55.886;2023-04-27T00:38:38;75528.69;;;-145.10;100.00
56334;BME280;42240;53.626;55.886;2023-04-27T00:40:11;75540.56;;;-145.10;100.00
56334;BME280;42240;53.626;55.886;2023-04-27T00:41:44;75546.50;;;-145.10;100.00
56334;BME280;42240;53.626;55.886;2023-04-27T00:43:17;75558.34;;;-145.10;100.00
56334;BME280;42240;53.626;55.886;2023-04-27T00:44:50;75562.31;;;-145.10;100.00
56334;BME280;42240;53.626;55.886;2023-04-27T00:46:23;75570.22;;;-145.10;100.00
56334;BME280;42240;53.626;55.886;2023-04-27T00:47:57;75582.06;;;-145.10;100.00
56334;BME280;42240;53.626;55.886;2023-04-27T00:49:31;75572.19;;;-145.10;100.00
56334;BME280;42240;53.626;55.886;2023-04-27T00:51:04;75584.06;;;-145.10;100.00
56334;BME280;42240;53.626;55.886;2023-04-27T00:52:38;75582.06;;;-145.10;100.00
56334;BME280;42240;53.626;55.886;2023-04-27T00:54:19;75584.06;;;-145.10;100.00
56334;BME280;42240;53.626;55.886;2023-04-27T00:55:53;75580.09;;;-145.10;100.00
56334;BME280;42240;53.626;55.886;2023-04-27T00:57:28;75584.06;;;-145.10;100.00
56334;BME280;42240;53.626;55.886;2023-04-27T00:59:01;75588.00;;;-145.10;100.00
56334;BME280;42240;53.626;55.886;2023-04-27T01:00:37;75578.13;;;-145.10;100.00
56334;BME280;42240;53.626;55.886;2023-04-27T01:02:10;75593.94;;;-145.10;100.00
56334;BME280;42240;53.626;55.886;2023-04-27T01:03:44;75599.88;;;-145.10;100.00
56334;BME280;42240;53.626;55.886;2023-04-27T01:05:18;75615.69;;;-145.10;100.00
56334;BME280;42240;53.626;55.886;2023-04-27T01:06:51;75639.41;;;-145.10;100.00
56334;BME280;42240;53.626;55.886;2023-04-27T01:08:27;75619.63;;;-145.10;100.00
56334;BME280;42240;53.626;55.886;2023-04-27T01:10:00;75617.66;;;-145.10;100.00
56334;BME280;42240;53.626;55.886;2023-04-27T01:11:34;75611.72;;;-145.10;100.00
56334;BME280;42240;53.626;55.886;2023-04-27T01:13:07;75627.53;;;-145.10;100.00
56334;BME280;42240;53.626;55.886;2023-04-27T01:14:42;75625.56;;;-145.10;100.00
56334;BME280;42240;53.626;55.886;2023-04-27T01:16:16;75639.41;;;-145.10;100.00
56334;BME280;42240;53.626;55.886;2023-04-27T01:17:59;75633.47;;;-145.10;100.00
56334;BME280;42240;53.626;55.886;2023-04-27T01:19:33;75631.50;;;-145.10;100.00
56334;BME280;42240;53.626;55.886;2023-04-27T01:21:06;75631.50;;;-145.10;100.00
56334;BME280;42240;53.626;55.886;2023-04-27T01:22:39;75635.44;;;-145.10;100.00
56334;BME280;42240;53.626;55.886;2023-04-27T01:24:13;75637.44;;;-145.10;100.00
56334;BME280;42240;53.626;55.886;2023-04-27T01:25:47;75635.44;;;-145.10;100.00
56334;BME280;42240;53.626;55.886;2023-04-27T01:27:19;75631.50;;;-145.10;100.00
56334;BME280;42240;53.626;55.886;2023-04-27T01:28:52;75635.44;;;-145.10;100.00
56334;BME280;42240;53.626;55.886;2023-04-27T01:30:25;75633.47;;;-145.10;100.00
56334;BME280;42240;53.626;55.886;2023-04-27T01:32:00;75627.53;;;-145.10;100.00
56334;BME280;42240;53.626;55.886;2023-04-27T01:33:33;75639.41;;;-145.10;100.00
56334;BME280;42240;53.626;55.886;2023-04-27T01:35:06;75639.41;;;-145.10;100.00
56334;BME280;42240;53.626;55.886;2023-04-27T01:36:39;75635.44;;;-145.10;100.00
56334;BME280;42240;53.626;55.886;2023-04-27T01:38:12;75671.03;;;-145.10;100.00
56334;BME280;42240;53.626;55.886;2023-04-27T01:39:48;75635.44;;;-145.10;100.00
56334;BME280;42240;53.626;55.886;2023-04-27T01:41:21;75643.34;;;-145.10;100.00
56334;BME280;42240;53.626;55.886;2023-04-27T01:42:54;75643.34;;;-145.10;100.00
56334;BME280;42240;53.626;55.886;2023-04-27T01:44:28;75651.25;;;-145.10;100.00
56334;BME280;42240;53.626;55.886;2023-04-27T01:46:12;75641.38;;;-145.10;100.00
56334;BME280;42240;53.626;55.886;2023-04-27T01:47:45;75651.25;;;-145.10;100.00
56334;BME280;42240;53.626;55.886;2023-04-27T01:49:20;75639.41;;;-145.10;100.00
56334;BME280;42240;53.626;55.886;2023-04-27T01:50:53;75615.69;;;-145.10;100.00
56334;BME280;42240;53.626;55.886;2023-04-27T01:52:26;75601.84;;;-145.10;100.00
56334;BME280;42240;53.626;55.886;2023-04-27T01:54:00;75597.88;;;-145.10;100.00
56334;BME280;42240;53.626;55.886;2023-04-27T01:55:33;75588.00;;;-145.10;100.00
56334;BME280;42240;53.626;55.886;2023-04-27T01:57:06;75568.22;;;-145.10;100.00
56334;BME280;42240;53.626;55.886;2023-04-27T01:58:39;75550.44;;;-145.10;100.00
56334;BME280;42240;53.626;55.886;2023-04-27T02:00:13;75548.47;;;-145.10;100.00
56334;BME280;42240;53.626;55.886;2023-04-27T02:01:51;75524.75;;;-145.10;100.00
56334;BME280;42240;53.626;55.886;2023-04-27T02:03:25;75532.66;;;-145.10;100.00
56334;BME280;42240;53.626;55.886;2023-04-27T02:04:58;75504.97;;;-145.10;100.00
56334;BME280;42240;53.626;55.886;2023-04-27T02:06:31;75473.34;;;-145.10;100.00
56334;BME280;42240;53.626;55.886;2023-04-27T02:08:04;75465.44;;;-145.10;100.00
56334;BME280;42240;53.626;55.886;2023-04-27T02:09:38;75481.25;;;-145.10;100.00
56334;BME280;42240;53.626;55.886;2023-04-27T02:11:11;75445.66;;;-145.10;100.00
56334;BME280;42240;53.626;55.886;2023-04-27T02:12:43;75445.66;;;-145.10;100.00
56334;BME280;42240;53.626;55.886;2023-04-27T02:14:16;75437.75;;;-145.10;100.00
56334;BME280;42240;53.626;55.886;2023-04-27T02:16:11;75449.63;;;-145.10;100.00
56334;BME280;42240;53.626;55.886;2023-04-27T02:17:44;75445.66;;;-145.10;100.00
56334;BME280;42240;53.626;55.886;2023-04-27T02:19:18;75435.78;;;-145.10;100.00
56334;BME280;42240;53.626;55.886;2023-04-27T02:20:51;75421.94;;;-145.10;100.00
56334;BME280;42240;53.626;55.886;2023-04-27T02:22:24;75414.03;;;-145.10;100.00
56334;BME280;42240;53.626;55.886;2023-04-27T02:23:57;75425.91;;;-145.10;100.00
56334;BME280;42240;53.626;55.886;2023-04-27T02:25:30;75390.31;;;-145.10;100.00
56334;BME280;42240;53.626;55.886;2023-04-27T02:27:03;75404.16;;;-145.10;100.00
56334;BME280;42240;53.626;55.886;2023-04-27T02:28:36;75390.31;;;-145.10;100.00
56334;BME280;42240;53.626;55.886;2023-04-27T02:30:10;75362.63;;;-145.10;100.00
56334;BME280;42240;53.626;55.886;2023-04-27T02:31:44;75327.06;;;-145.10;100.00
56334;BME280;42240;53.626;55.886;2023-04-27T02:33:17;75311.25;;;-145.10;100.00
56334;BME280;42240;53.626;55.886;2023-04-27T02:34:51;75261.81;;;-145.10;100.00
56334;BME280;42240;53.626;55.886;2023-04-27T02:36:24;75251.94;;;-145.10;100.00
56334;BME280;42240;53.626;55.886;2023-04-27T02:37:59;75275.66;;;-145.10;100.00
56334;BME280;42240;53.626;55.886;2023-04-27T02:39:32;75279.63;;;-145.10;100.00
56334;BME280;42240;53.626;55.886;2023-04-27T02:41:05;75303.34;;;-145.10;100.00
56334;BME280;42240;53.626;55.886;2023-04-27T02:42:39;75334.97;;;-145.10;100.00
56334;BME280;42240;53.626;55.886;2023-04-27T02:44:15;75325.09;;;-145.10;100.00
56334;BME280;42240;53.626;55.886;2023-04-27T02:45:48;75307.28;;;-145.10;100.00
56334;BME280;42240;53.626;55.886;2023-04-27T02:47:21;75313.22;;;-145.10;100.00
56334;BME280;42240;53.626;55.886;2023-04-27T02:48:54;75307.28;;;-145.10;100.00
56334;BME280;42240;53.626;55.886;2023-04-27T02:50:28;75329.03;;;-145.10;100.00
56334;BME280;42240;53.626;55.886;2023-04-27T02:52:00;75315.19;;;-145.10;100.00
56334;BME280;42240;53.626;55.886;2023-04-27T02:53:33;75333.00;;;-145.10;100.00
56334;BME280;42240;53.626;55.886;2023-04-27T02:55:07;75344.84;;;-145.10;100.00
56334;BME280;42240;53.626;55.886;2023-04-27T02:56:40;75358.69;;;-145.10;100.00
56334;BME280;42240;53.626;55.886;2023-04-27T02:58:14;75362.63;;;-145.10;100.00
56334;BME280;42240;53.626;55.886;2023-04-27T02:59:47;75372.53;;;-145.10;100.00
56334;BME280;42240;53.626;55.886;2023-04-27T03:01:20;75388.34;;;-145.10;100.00
56334;BME280;42240;53.626;55.886;2023-04-27T03:02:53;75376.47;;;-145.10;100.00
56334;BME280;42240;53.626;55.886;2023-04-27T03:04:26;75350.78;;;-145.10;100.00
56334;BME280;42240;53.626;55.886;2023-04-27T03:06:00;75350.78;;;-145.10;100.00
56334;BME280;42240;53.626;55.886;2023-04-27T03:07:33;75327.06;;;-145.10;100.00
56334;BME280;42240;53.626;55.886;2023-04-27T03:09:08;75240.09;;;-145.10;100.00
56334;BME280;42240;53.626;55.886;2023-04-27T03:10:44;75228.22;;;-145.10;100.00
56334;BME280;42240;53.626;55.886;2023-04-27T03:12:17;75234.16;;;-145.10;100.00
56334;BME280;42240;53.626;55.886;2023-04-27T03:13:50;75226.25;;;-145.10;100.00
56334;BME280;42240;53.626;55.886;2023-04-27T03:15:23;75214.38;;;-145.10;100.00
56334;BME280;42240;53.626;55.886;2023-04-27T03:16:56;75194.63;;;-145.10;100.00
56334;BME280;42240;53.626;55.886;2023-04-27T03:18:29;75212.41;;;-145.10;100.00
56334;BME280;42240;53.626;55.886;2023-04-27T03:20:03;75218.34;;;-145.10;100.00
56334;BME280;42240;53.626;55.886;2023-04-27T03:21:39;75168.91;;;-145.10;100.00
56334;BME280;42240;53.626;55.886;2023-04-27T03:23:13;75196.59;;;-145.10;100.00
56334;BME280;42240;53.626;55.886;2023-04-27T03:24:46;75182.75;;;-145.10;100.00
56334;BME280;42240;53.626;55.886;2023-04-27T03:26:20;75216.38;;;-145.10;100.00
56334;BME280;42240;53.626;55.886;2023-04-27T03:27:53;75230.19;;;-145.10;100.00
56334;BME280;42240;53.626;55.886;2023-04-27T03:29:27;75251.94;;;-145.10;100.00
56334;BME280;42240;53.626;55.886;2023-04-27T03:31:02;75240.09;;;-145.10;100.00
56334;BME280;42240;53.626;55.886;2023-04-27T03:32:36;75228.22;;;-145.10;100.00
56334;BME280;42240;53.626;55.886;2023-04-27T03:34:09;75204.50;;;-145.10;100.00
56334;BME280;42240;53.626;55.886;2023-04-27T03:35:43;75224.28;;;-145.10;100.00
56334;BME280;42240;53.626;55.886;2023-04-27T03:37:18;75208.47;;;-145.10;100.00
56334;BME280;42240;53.626;55.886;2023-04-27T03:38:51;75188.69;;;-145.10;100.00
56334;BME280;42240;53.626;55.886;2023-04-27T03:40:25;75145.19;;;-145.10;100.00
56334;BME280;42240;53.626;55.886;2023-04-27T03:41:57;75117.53;;;-145.10;100.00
56334;BME280;42240;53.626;55.886;2023-04-27T03:43:30;75070.09;;;-145.10;100.00
56334;BME280;42240;53.626;55.886;2023-04-27T03:45:04;75046.38;;;-145.10;100.00
56334;BME280;42240;53.626;55.886;2023-04-27T03:46:38;74987.06;;;-145.10;100.00
56334;BME280;42240;53.626;55.886;2023-04-27T03:48:13;74965.31;;;-145.10;100.00
56334;BME280;42240;53.626;55.886;2023-04-27T03:49:46;74923.81;;;-145.10;100.00
56334;BME280;42240;53.626;55.886;2023-04-27T03:51:20;74919.88;;;-145.10;100.00
56334;BME280;42240;53.626;55.886;2023-04-27T03:52:53;74909.97;;;-145.10;100.00
56334;BME280;42240;53.626;55.886;2023-04-27T03:54:26;74955.44;;;-145.10;100.00
56334;BME280;42240;53.626;55.886;2023-04-27T03:56:01;74898.13;;;-145.10;100.00
56334;BME280;42240;53.626;55.886;2023-04-27T03:57:35;74856.63;;;-145.10;100.00
56334;BME280;42240;53.626;55.886;2023-04-27T03:59:09;74830.91;;;-145.10;100.00
56334;BME280;42240;53.626;55.886;2023-04-27T04:00:47;74807.19;;;-145.10;100.00
56334;BME280;42240;53.626;55.886;2023-04-27T04:02:20;74694.53;;;-145.10;100.00
56334;BME280;42240;53.626;55.886;2023-04-27T04:03:54;74694.53;;;-145.10;98.89
56334;BME280;42240;53.626;55.886;2023-04-27T04:05:28;74664.91;;;-145.10;96.50
56334;BME280;42240;53.626;55.886;2023-04-27T04:07:04;74726.16;;;-145.10;95.90
56334;BME280;42240;53.626;55.886;2023-04-27T04:08:37;74710.34;;;-145.10;96.28
56334;BME280;42240;53.626;55.886;2023-04-27T04:10:11;74625.38;;;-145.10;93.01
56334;BME280;42240;53.626;55.886;2023-04-27T04:11:44;74637.22;;;-145.10;88.72
56334;BME280;42240;53.626;55.886;2023-04-27T04:13:19;74575.97;;;-145.10;86.01
56334;BME280;42240;53.626;55.886;2023-04-27T04:14:52;74544.34;;;-145.10;82.14
56334;BME280;42240;53.626;55.886;2023-04-27T04:16:25;74469.22;;;-145.10;78.04
56334;BME280;42240;53.626;55.886;2023-04-27T04:17:58;74445.50;;;-145.10;76.01
56334;BME280;42240;53.626;55.886;2023-04-27T04:19:32;74441.56;;;-145.10;75.79
56334;BME280;42240;53.626;55.886;2023-04-27T04:21:05;74447.50;;;-145.10;76.21
56334;BME280;42240;53.626;55.886;2023-04-27T04:22:39;74352.63;;;-145.10;73.88
56334;BME280;42240;53.626;55.886;2023-04-27T04:24:12;74508.75;;;-145.10;75.87
56334;BME280;42240;53.626;55.886;2023-04-27T04:25:45;74455.41;;;-145.10;76.43
56334;BME280;42240;53.626;55.886;2023-04-27T04:27:19;74473.19;;;-145.10;75.17
56334;BME280;42240;53.626;55.886;2023-04-27T04:28:53;74532.47;;;-145.10;74.71
56334;BME280;42240;53.626;55.886;2023-04-27T04:30:26;74510.75;;;-145.10;76.23
56334;BME280;42240;53.626;55.886;2023-04-27T04:31:59;74653.03;;;-145.10;80.32
56334;BME280;42240;53.626;55.886;2023-04-27T04:33:34;74741.97;;;-145.10;86.76
56334;BME280;42240;53.626;55.886;2023-04-27T04:35:07;74751.84;;;-145.10;89.72
56334;BME280;42240;53.626;55.886;2023-04-27T04:36:40;74747.91;;;-145.10;90.74
56334;BME280;42240;53.626;55.886;2023-04-27T04:38:14;74686.63;;;-145.10;88.09
56334;BME280;42240;53.626;55.886;2023-04-27T04:39:47;74613.50;;;-145.10;85.43
56334;BME280;42240;53.626;55.886;2023-04-27T04:41:21;74698.50;;;-145.10;86.48
56334;BME280;42240;53.626;55.886;2023-04-27T04:42:55;74726.16;;;-145.10;89.31
56334;BME280;42240;53.626;55.886;2023-04-27T04:44:28;74647.09;;;-145.10;87.54
56334;BME280;42240;53.626;55.886;2023-04-27T04:46:01;74568.06;;;-145.10;84.79
56334;BME280;42240;53.626;55.886;2023-04-27T04:47:34;74570.03;;;-145.10;82.37
56334;BME280;42240;53.626;55.886;2023-04-27T04:49:08;74425.75;;;-145.10;76.13
56334;BME280;42240;53.626;55.886;2023-04-27T04:50:42;74279.50;;;-145.10;71.84
56334;BME280;42240;53.626;55.886;2023-04-27T04:52:16;74111.53;;;-145.10;63.50
56334;BME280;42240;53.626;55.886;2023-04-27T04:53:50;74099.66;;;-145.10;56.36
56334;BME280;42240;53.626;55.886;2023-04-27T04:55:25;74121.41;;;-145.10;57.47
56334;BME280;42240;53.626;55.886;2023-04-27T04:57:00;74046.31;;;-145.10;54.28
56334;BME280;42240;53.626;55.886;2023-04-27T04:58:34;74002.84;;;-145.10;50.69
56334;BME280;42240;53.626;55.886;2023-04-27T05:00:09;73951.47;;;-145.10;49.05
56334;BME280;42240;53.626;55.886;2023-04-27T05:01:44;74089.78;;;-145.10;50.45
56334;BME280;42240;53.626;55.886;2023-04-27T05:03:17;74178.72;;;-145.10;52.14
56334;BME280;42240;53.626;55.886;2023-04-27T05:04:50;73943.56;;;-145.10;48.19
56334;BME280;42240;53.626;55.886;2023-04-27T05:06:24;73888.22;;;-145.10;45.27
56334;BME280;42240;53.626;55.886;2023-04-27T05:07:57;73826.97;;;-145.10;44.16
56334;BME280;42240;53.626;55.886;2023-04-27T05:09:31;73872.41;;;-145.10;42.15
56334;BME280;42240;53.626;55.886;2023-04-27T05:11:03;73880.31;;;-145.10;42.47
56334;BME280;42240;53.626;55.886;2023-04-27T05:12:37;73913.91;;;-145.10;41.95
56334;BME280;42240;53.626;55.886;2023-04-27T05:14:10;73896.13;;;-145.10;41.43
56334;BME280;42240;53.626;55.886;2023-04-27T05:15:44;73904.03;;;-145.10;41.70
56334;BME280;42240;53.626;55.886;2023-04-27T05:17:17;73876.38;;;-145.10;41.83
56334;BME280;42240;53.626;55.886;2023-04-27T05:18:50;73896.13;;;-145.10;41.32
56334;BME280;42240;53.626;55.886;2023-04-27T05:20:23;73769.66;;;-145.10;42.03
56334;BME280;42240;53.626;55.886;2023-04-27T05:21:57;73745.94;;;-145.10;39.43
56334;BME280;42240;53.626;55.886;2023-04-27T05:23:30;73682.72;;;-145.10;38.30
56334;BME280;42240;53.626;55.886;2023-04-27T05:25:04;73682.72;;;-145.10;38.22
56334;BME280;42240;53.626;55.886;2023-04-27T05:26:38;73639.25;;;-145.10;38.21
56334;BME280;42240;53.626;55.886;2023-04-27T05:28:11;73647.16;;;-145.10;37.46
56334;BME280;42240;53.626;55.886;2023-04-27T05:29:44;73635.31;;;-145.10;37.56
56334;BME280;42240;53.626;55.886;2023-04-27T05:31:17;73583.94;;;-145.10;35.78
56334;BME280;42240;53.626;55.886;2023-04-27T05:32:50;73562.19;;;-145.10;35.16
56334;BME280;42240;53.626;55.886;2023-04-27T05:34:23;73558.25;;;-145.10;34.97
56334;BME280;42240;53.626;55.886;2023-04-27T05:35:56;73532.56;;;-145.10;34.57
56334;BME280;42240;53.626;55.886;2023-04-27T05:37:29;73564.16;;;-145.10;34.74
56334;BME280;42240;53.626;55.886;2023-04-27T05:39:02;73639.25;;;-145.10;35.75
56334;BME280;42240;53.626;55.886;2023-04-27T05:40:35;73635.31;;;-145.10;35.79
56334;BME280;42240;53.626;55.886;2023-04-27T05:42:08;73655.06;;;-145.10;35.34
56334;BME280;42240;53.626;55.886;2023-04-27T05:43:42;73593.81;;;-145.10;33.76
56334;BME280;42240;53.626;55.886;2023-04-27T05:45:15;73599.72;;;-145.10;34.05
56334;BME280;42240;53.626;55.886;2023-04-27T05:46:48;73587.88;;;-145.10;34.23
56334;BME280;42240;53.626;55.886;2023-04-27T05:48:20;73558.25;;;-145.10;34.30
56334;BME280;42240;53.626;55.886;2023-04-27T05:49:53;73469.31;;;-145.10;33.89
56334;BME280;42240;53.626;55.886;2023-04-27T05:51:26;73453.53;;;-145.10;33.69
56334;BME280;42240;53.626;55.886;2023-04-27T05:53:00;73421.91;;;-145.10;33.20
56334;BME280;42240;53.626;55.886;2023-04-27T05:54:33;73437.72;;;-145.10;32.66
56334;BME280;42240;53.626;55.886;2023-04-27T05:56:06;73433.75;;;-145.10;32.09
56334;BME280;42240;53.626;55.886;2023-04-27T05:57:39;73451.53;;;-145.10;31.94
56334;BME280;42240;53.626;55.886;2023-04-27T05:59:12;73400.16;;;-145.10;31.50
56334;BME280;42240;53.626;55.886;2023-04-27T06:00:46;73382.38;;;-145.10;31.61
56334;BME280;42240;53.626;55.886;2023-04-27T06:02:20;73362.63;;;-145.10;31.27
56334;BME280;42240;53.626;55.886;2023-04-27T06:03:54;73358.69;;;-145.10;31.35
56334;BME280;42240;53.626;55.886;2023-04-27T06:05:27;73372.50;;;-145.10;31.04
56334;BME280;42240;53.626;55.886;2023-04-27T06:07:01;73325.09;;;-145.10;30.45
56334;BME280;42240;53.626;55.886;2023-04-27T06:08:37;73350.78;;;-145.10;30.14
56334;BME280;42240;53.626;55.886;2023-04-27T06:10:11;73360.66;;;-145.10;30.24
56334;BME280;42240;53.626;55.886;2023-04-27T06:11:44;73331.03;;;-145.10;29.79
56334;BME280;42240;53.626;55.886;2023-04-27T06:13:19;73253.97;;;-145.10;29.25
56334;BME280;42240;53.626;55.886;2023-04-27T06:14:52;73228.28;;;-145.10;28.67
56334;BME280;42240;53.626;55.886;2023-04-27T06:16:25;73261.88;;;-145.10;29.48
56334;BME280;42240;53.626;55.886;2023-04-27T06:17:58;73222.34;;;-145.10;29.15
56334;BME280;42240;53.626;55.886;2023-04-27T06:19:31;73253.97;;;-145.10;29.38
56334;BME280;42240;53.626;55.886;2023-04-27T06:21:05;73362.63;;;-145.10;29.88
56334;BME280;42240;53.626;55.886;2023-04-27T06:22:38;73386.34;;;-145.10;30.36
56334;BME280;42240;53.626;55.886;2023-04-27T06:24:11;73346.81;;;-145.10;30.09
56334;BME280;42240;53.626;55.886;2023-04-27T06:25:44;73348.81;;;-145.10;30.42
56334;BME280;42240;53.626;55.886;2023-04-27T06:27:18;73348.81;;;-145.10;30.50
56334;BME280;42240;53.626;55.886;2023-04-27T06:28:50;73368.56;;;-145.10;30.17
56334;BME280;42240;53.626;55.886;2023-04-27T06:30:24;73445.63;;;-145.10;31.25
56334;BME280;42240;53.626;55.886;2023-04-27T06:31:57;73441.66;;;-145.10;31.67
56334;BME280;42240;53.626;55.886;2023-04-27T06:33:30;73497.00;;;-145.10;31.21
56334;BME280;42240;53.626;55.886;2023-04-27T06:35:03;73485.13;;;-145.10;31.72
56334;BME280;42240;53.626;55.886;2023-04-27T06:36:36;73504.91;;;-145.10;30.96
56334;BME280;42240;53.626;55.886;2023-04-27T06:38:09;73722.25;;;-145.10;32.21
56334;BME280;42240;53.626;55.886;2023-04-27T06:39:43;73755.84;;;-145.10;32.86
56334;BME280;42240;53.626;55.886;2023-04-27T06:41:18;73730.16;;;-145.10;32.95
56334;BME280;42240;53.626;55.886;2023-04-27T06:42:51;73759.78;;;-145.10;32.95
56334;BME280;42240;53.626;55.886;2023-04-27T06:44:24;73753.84;;;-145.10;32.18
56334;BME280;42240;53.626;55.886;2023-04-27T06:45:57;73844.75;;;-145.10;32.98
56334;BME280;42240;53.626;55.886;2023-04-27T06:47:30;73832.91;;;-145.10;33.26
56334;BME280;42240;53.626;55.886;2023-04-27T06:49:03;73813.13;;;-145.10;33.03
56334;BME280;42240;53.626;55.886;2023-04-27T06:50:36;73813.13;;;-145.10;33.93
56334;BME280;42240;53.626;55.886;2023-04-27T06:52:09;73908.00;;;-145.10;33.72
56334;BME280;42240;53.626;55.886;2023-04-27T06:53:42;73813.13;;;-145.10;32.06
56334;BME280;42240;53.626;55.886;2023-04-27T06:55:15;73757.81;;;-145.10;32.72
56334;BME280;42240;53.626;55.886;2023-04-27T06:56:48;73767.69;;;-145.10;32.77
56334;BME280;42240;53.626;55.886;2023-04-27T06:58:22;73823.03;;;-145.10;32.13
56334;BME280;42240;53.626;55.886;2023-04-27T06:59:55;73828.94;;;-145.10;31.48
56334;BME280;42240;53.626;55.886;2023-04-27T07:01:28;73888.22;;;-145.10;31.45
56334;BME280;42240;53.626;55.886;2023-04-27T07:03:01;73830.94;;;-145.10;31.55
56334;BME280;42240;53.626;55.886;2023-04-27T07:04:35;73848.72;;;-145.10;30.89
56334;BME280;42240;53.626;55.886;2023-04-27T07:06:09;73809.19;;;-145.10;31.31
56334;BME280;42240;53.626;55.886;2023-04-27T07:07:43;73828.94;;;-145.10;31.34
56334;BME280;42240;53.626;55.886;2023-04-27T07:09:16;73834.88;;;-145.10;31.30
56334;BME280;42240;53.626;55.886;2023-04-27T07:10:59;73803.25;;;-145.10;31.78
56334;BME280;42240;53.626;55.886;2023-04-27T07:12:32;73817.09;;;-145.10;32.00
56334;BME280;42240;53.626;55.886;2023-04-27T07:14:05;73821.03;;;-145.10;31.83
56334;BME280;42240;53.626;55.886;2023-04-27T07:15:38;73844.75;;;-145.10;31.95
56334;BME280;42240;53.626;55.886;2023-04-27T07:17:11;73809.19;;;-145.10;32.23
56334;BME280;42240;53.626;55.886;2023-04-27T07:18:44;73884.28;;;-145.10;31.95
56334;BME280;42240;53.626;55.886;2023-04-27T07:20:17;73815.13;;;-145.10;32.67
56334;BME280;42240;53.626;55.886;2023-04-27T07:21:51;73882.31;;;-145.10;31.49
56334;BME280;42240;53.626;55.886;2023-04-27T07:23:24;73868.47;;;-145.10;31.91
56334;BME280;42240;53.626;55.886;2023-04-27T07:24:58;73826.97;;;-145.10;31.58
56334;BME280;42240;53.626;55.886;2023-04-27T07:26:31;73811.16;;;-145.10;31.71
56334;BME280;42240;53.626;55.886;2023-04-27T07:28:04;73795.34;;;-145.10;31.32
56334;BME280;42240;53.626;55.886;2023-04-27T07:29:38;73809.19;;;-145.10;31.30
56334;BME280;42240;53.626;55.886;2023-04-27T07:31:11;73805.22;;;-145.10;31.51
56334;BME280;42240;53.626;55.886;2023-04-27T07:32:44;73785.47;;;-145.10;31.75
56334;BME280;42240;53.626;55.886;2023-04-27T07:34:18;73773.63;;;-145.10;31.94
56334;BME280;42240;53.626;55.886;2023-04-27T07:35:52;73793.38;;;-145.10;31.44
56334;BME280;42240;53.626;55.886;2023-04-27T07:37:25;73803.25;;;-145.10;31.34
56334;BME280;42240;53.626;55.886;2023-04-27T07:38:58;73775.59;;;-145.10;31.35
56334;BME280;42240;53.626;55.886;2023-04-27T07:40:32;73803.25;;;-145.10;31.22
56334;BME280;42240;53.626;55.886;2023-04-27T07:42:06;73761.75;;;-145.10;31.40
56334;BME280;42240;53.626;55.886;2023-04-27T07:43:39;73742.00;;;-145.10;31.16
56334;BME280;42240;53.626;55.886;2023-04-27T07:45:13;73728.16;;;-145.10;31.57
56334;BME280;42240;53.626;55.886;2023-04-27T07:46:49;73777.56;;;-145.10;31.48
56334;BME280;42240;53.626;55.886;2023-04-27T07:48:27;73742.00;;;-145.10;31.32
56334;BME280;42240;53.626;55.886;2023-04-27T07:50:00;73781.53;;;-145.10;31.37
56334;BME280;42240;53.626;55.886;2023-04-27T07:51:33;73738.06;;;-145.10;31.79
56334;BME280;42240;53.626;55.886;2023-04-27T07:53:10;73797.34;;;-145.10;31.46
56334;BME280;42240;53.626;55.886;2023-04-27T07:54:43;73789.44;;;-145.10;31.69